LEBL/BCN METAR and TAF weather

Enter ICAO airport designator
Station Type Date Time Source
LEBL METAR 2023/02/06 00:00 UTC NOAA

LEBL 060000Z 32007KT CAVOK 07/03 Q1028 NOSIG


Station Type Date Time Source
LEBL Decoded METAR 2023/02/06 00:00 UTC NOAA

Barcelona / Aeropuerto, Spain (LEBL) 41-17N 002-04E 6M
Feb 05, 2023 - 07:00 PM EST / 2023.02.06 0000 UTC
Wind: from the NW (320 degrees) at 8 MPH (7 KT):0
Visibility: greater than 7 mile(s):0
Temperature: 44 F (7 C)
Dew Point: 37 F (3 C)
Relative Humidity: 75%
Pressure (altimeter): 30.36 in. Hg (1028 hPa)
ob: LEBL 060000Z 32007KT CAVOK 07/03 Q1028 NOSIG
cycle: 0

Station Type Date Time Source
LEBL TAF 2023/02/05 18:27 UTC NOAA

TAF LEBL 051700Z 0518/0618 22006KT 9999 FEW025 TX13/0612Z TN05/0606Z
BECMG 0518/0521 34009KT PROB40
TEMPO 0600/0607 07016G26KT
BECMG 0607/0610 05016KT PROB40
TEMPO 0609/0618 06020G30KT
TEMPO 0608/0618 SHRA FEW025TCU

Example: see airport list